createdAt,value
2022-10-20T00:00:10.034Z,1002.11
2022-10-20T00:01:09.964Z,1002.07
2022-10-20T00:02:09.930Z,1002.07
2022-10-20T00:03:09.837Z,1002.02
2022-10-20T00:04:10.057Z,1002.04
2022-10-20T00:05:09.703Z,1002.04
2022-10-20T00:06:09.645Z,1002.02
2022-10-20T00:07:09.581Z,1002.03
2022-10-20T00:08:09.527Z,1002.07
2022-10-20T00:09:09.538Z,1002.04
2022-10-20T00:10:09.413Z,1002.02
2022-10-20T00:11:09.325Z,1001.99
2022-10-20T00:12:09.251Z,1002.02
2022-10-20T00:13:09.210Z,1002.00
2022-10-20T00:14:09.127Z,1002.05
2022-10-20T00:15:09.063Z,1002.04
2022-10-20T00:16:09.015Z,1002.01
2022-10-20T00:17:08.953Z,1002.00
2022-10-20T00:18:08.876Z,1001.99
2022-10-20T00:19:08.806Z,1002.00
2022-10-20T00:20:08.775Z,1002.01
2022-10-20T00:21:08.690Z,1002.07
2022-10-20T00:22:08.622Z,1002.03
2022-10-20T00:23:08.551Z,1002.03
2022-10-20T00:24:08.495Z,1001.99
2022-10-20T00:25:08.423Z,1001.97
2022-10-20T00:26:08.361Z,1001.97
2022-10-20T00:27:08.308Z,1001.96
2022-10-20T00:29:47.183Z,1001.93
2022-10-20T00:30:48.126Z,1001.95
2022-10-20T00:31:48.057Z,1001.90
2022-10-20T00:32:47.996Z,1001.92
2022-10-20T00:33:47.944Z,1001.92
2022-10-20T00:34:47.853Z,1001.86
2022-10-20T00:35:47.793Z,1001.85
2022-10-20T00:36:50.452Z,1001.85
2022-10-20T00:37:47.678Z,1001.88
2022-10-20T00:38:47.590Z,1001.79
2022-10-20T00:39:47.536Z,1001.85
2022-10-20T00:40:47.484Z,1001.86
2022-10-20T00:41:47.399Z,1001.81
2022-10-20T00:42:47.337Z,1001.80
2022-10-20T00:43:47.313Z,1001.78
2022-10-20T00:44:47.216Z,1001.81
2022-10-20T00:46:08.127Z,1001.80
2022-10-20T00:46:47.078Z,1001.77
2022-10-20T00:47:47.019Z,1001.79
2022-10-20T00:48:46.957Z,1001.74
2022-10-20T00:49:46.888Z,1001.70
2022-10-20T00:50:46.841Z,1001.72
2022-10-20T00:51:46.780Z,1001.68
2022-10-20T00:52:46.699Z,1001.72
2022-10-20T00:53:46.634Z,1001.71
2022-10-20T00:54:46.580Z,1001.68
2022-10-20T00:55:46.529Z,1001.66
2022-10-20T00:56:46.441Z,1001.65
2022-10-20T00:57:46.407Z,1001.63
2022-10-20T00:58:46.326Z,1001.62
2022-10-20T00:59:46.243Z,1001.55
2022-10-20T01:00:46.203Z,1001.54
2022-10-20T01:01:46.203Z,1001.55
2022-10-20T01:02:46.063Z,1001.52
2022-10-20T01:05:24.931Z,1001.49
2022-10-20T01:06:25.877Z,1001.46
2022-10-20T01:07:25.818Z,1001.48
2022-10-20T01:08:25.767Z,1001.46
2022-10-20T01:09:25.694Z,1001.45
2022-10-20T01:10:25.618Z,1001.43
2022-10-20T01:11:25.554Z,1001.46
2022-10-20T01:12:25.500Z,1001.45
2022-10-20T01:13:25.420Z,1001.41
2022-10-20T01:14:25.346Z,1001.39
2022-10-20T01:16:25.223Z,1001.42
2022-10-20T01:17:25.167Z,1001.36
2022-10-20T01:18:25.092Z,1001.40
2022-10-20T01:19:25.039Z,1001.39
2022-10-20T01:20:24.981Z,1001.41
2022-10-20T01:21:24.929Z,1001.47
2022-10-20T01:22:24.848Z,1001.40
2022-10-20T01:23:24.770Z,1001.36
2022-10-20T01:24:24.734Z,1001.38
2022-10-20T01:25:24.678Z,1001.33
2022-10-20T01:26:24.590Z,1001.31
2022-10-20T01:27:24.546Z,1001.33
2022-10-20T01:28:24.449Z,1001.31
2022-10-20T01:29:24.401Z,1001.30
2022-10-20T01:30:24.329Z,1001.29
2022-10-20T01:31:24.263Z,1001.30
2022-10-20T01:32:24.213Z,1001.27
2022-10-20T01:33:24.186Z,1001.25
2022-10-20T01:34:24.082Z,1001.25
2022-10-20T01:35:24.007Z,1001.24
2022-10-20T01:36:23.953Z,1001.19
2022-10-20T01:37:34.024Z,1001.18
2022-10-20T01:38:23.821Z,1001.14
2022-10-20T01:39:44.731Z,1001.09
2022-10-20T01:40:23.686Z,1001.07
2022-10-20T01:41:23.626Z,1001.06
2022-10-20T01:42:23.600Z,1001.05
2022-10-20T01:43:23.507Z,1001.04
2022-10-20T01:44:23.428Z,1001.01
2022-10-20T01:45:23.389Z,1000.99
2022-10-20T01:46:23.293Z,1001.02
2022-10-20T01:47:23.234Z,1001.00
2022-10-20T01:48:23.185Z,1000.98
2022-10-20T01:49:23.119Z,1000.95
2022-10-20T01:50:23.046Z,1000.91
2022-10-20T01:51:22.991Z,1000.92
2022-10-20T01:52:22.910Z,1000.94
2022-10-20T01:53:22.852Z,1000.96
2022-10-20T01:54:22.784Z,1000.92
2022-10-20T01:55:22.738Z,1000.91
2022-10-20T01:56:22.653Z,1000.89
2022-10-20T01:59:01.521Z,1000.79
2022-10-20T02:00:02.468Z,1000.75
2022-10-20T02:01:02.395Z,1000.75
2022-10-20T02:02:02.341Z,1000.69
2022-10-20T02:03:02.290Z,1000.72
2022-10-20T02:04:02.218Z,1000.71
2022-10-20T02:05:02.159Z,1000.63
2022-10-20T02:06:02.075Z,1000.61
2022-10-20T02:07:02.016Z,1000.57
2022-10-20T02:08:01.958Z,1000.54
2022-10-20T02:09:02.233Z,1000.53
2022-10-20T02:10:01.831Z,1000.50
2022-10-20T02:11:01.770Z,1000.45
2022-10-20T02:12:01.702Z,1000.47
2022-10-20T02:13:01.636Z,1000.46
2022-10-20T02:14:01.567Z,1000.43
2022-10-20T02:15:01.514Z,1000.47
2022-10-20T02:16:01.432Z,1000.46
2022-10-20T02:17:01.368Z,1000.50
2022-10-20T02:18:01.317Z,1000.50
2022-10-20T02:19:01.244Z,1000.50
2022-10-20T02:20:01.177Z,1000.49
2022-10-20T02:21:01.145Z,1000.48
2022-10-20T02:22:01.058Z,1000.49
2022-10-20T02:23:00.985Z,1000.46
2022-10-20T02:24:00.936Z,1000.45
2022-10-20T02:25:00.856Z,1000.44
2022-10-20T02:26:00.802Z,1000.45
2022-10-20T02:27:00.757Z,1000.48
2022-10-20T02:29:00.613Z,1000.41
2022-10-20T02:30:00.548Z,1000.40
2022-10-20T02:31:00.470Z,1000.42
2022-10-20T02:32:00.404Z,1000.35
2022-10-20T02:33:21.317Z,1000.37
2022-10-20T02:34:00.276Z,1000.33
2022-10-20T02:35:04.932Z,1000.32
2022-10-20T02:36:00.164Z,1000.30
2022-10-20T02:37:00.098Z,1000.26
2022-10-20T02:38:00.034Z,1000.33
2022-10-20T02:38:59.987Z,1000.30
2022-10-20T02:39:59.896Z,1000.29
2022-10-20T02:40:59.847Z,1000.29
2022-10-20T02:41:59.798Z,1000.26
2022-10-20T02:42:59.704Z,1000.26
2022-10-20T02:43:59.653Z,1000.23
2022-10-20T02:44:59.588Z,1000.29
2022-10-20T02:45:59.520Z,1000.29
2022-10-20T02:46:59.439Z,1000.29
2022-10-20T02:47:59.388Z,1000.34
2022-10-20T02:48:59.328Z,1000.26
2022-10-20T02:49:59.245Z,1000.29
2022-10-20T02:51:20.173Z,1000.28
2022-10-20T02:51:59.121Z,1000.30
2022-10-20T02:52:59.072Z,1000.27
2022-10-20T02:53:59.004Z,1000.32
2022-10-20T02:54:58.924Z,1000.30
2022-10-20T02:55:58.881Z,1000.29
2022-10-20T02:56:58.832Z,1000.29
2022-10-20T02:57:58.738Z,1000.22
2022-10-20T02:58:58.688Z,1000.22
2022-10-20T02:59:58.602Z,1000.15
2022-10-20T03:00:58.557Z,1000.16
2022-10-20T03:01:58.540Z,1000.17
2022-10-20T03:02:58.443Z,1000.11
2022-10-20T03:03:58.347Z,1000.12
2022-10-20T03:04:58.287Z,1000.16
2022-10-20T03:05:58.246Z,1000.18
2022-10-20T03:06:58.163Z,1000.21
2022-10-20T03:07:58.116Z,1000.20
2022-10-20T03:08:58.085Z,1000.18
2022-10-20T03:09:57.964Z,1000.17
2022-10-20T03:10:57.903Z,1000.14
2022-10-20T03:11:57.838Z,1000.12
2022-10-20T03:12:57.768Z,1000.17
2022-10-20T03:13:57.718Z,1000.11
2022-10-20T03:14:57.994Z,1000.02
2022-10-20T03:15:57.588Z,1000.07
2022-10-20T03:16:57.510Z,1000.02
2022-10-20T03:17:57.463Z,1000.07
2022-10-20T03:19:00.303Z,1000.05
2022-10-20T03:19:57.342Z,1000.07
2022-10-20T03:20:57.289Z,1000.13
2022-10-20T03:21:57.205Z,1000.10
2022-10-20T03:22:57.137Z,1000.08
2022-10-20T03:23:57.064Z,1000.10
2022-10-20T03:24:57.009Z,1000.11
2022-10-20T03:25:56.956Z,1000.13
2022-10-20T03:26:56.908Z,1000.10
2022-10-20T03:27:56.817Z,1000.08
2022-10-20T03:28:56.750Z,1000.01
2022-10-20T03:29:56.693Z,999.99
2022-10-20T03:30:56.617Z,999.99
2022-10-20T03:31:56.556Z,999.97
2022-10-20T03:32:56.505Z,999.95
2022-10-20T03:33:56.436Z,999.92
2022-10-20T03:34:56.367Z,999.93
2022-10-20T03:35:56.295Z,999.96
2022-10-20T03:36:56.239Z,999.92
2022-10-20T03:37:56.159Z,999.92
2022-10-20T03:38:56.122Z,999.86
2022-10-20T03:39:56.034Z,999.87
2022-10-20T03:40:56.016Z,999.87
2022-10-20T03:41:55.917Z,999.81
2022-10-20T03:42:55.848Z,999.80
2022-10-20T03:43:55.781Z,999.77
2022-10-20T03:44:55.745Z,999.72
2022-10-20T03:45:55.670Z,999.72
2022-10-20T03:46:55.586Z,999.70
2022-10-20T03:47:55.518Z,999.73
2022-10-20T03:48:55.457Z,999.76
2022-10-20T03:49:55.534Z,999.68
2022-10-20T03:50:55.347Z,999.67
2022-10-20T03:51:55.288Z,999.63
2022-10-20T03:52:55.210Z,999.65
2022-10-20T03:53:55.149Z,999.58
2022-10-20T03:54:55.066Z,999.61
2022-10-20T03:55:55.023Z,999.63
2022-10-20T03:56:56.509Z,999.57
2022-10-20T03:57:54.894Z,999.55
2022-10-20T03:58:54.876Z,999.55
2022-10-20T03:59:54.757Z,999.52
2022-10-20T04:00:54.700Z,999.49
2022-10-20T04:01:54.695Z,999.49
2022-10-20T04:02:54.588Z,999.48
2022-10-20T04:03:54.515Z,999.49
2022-10-20T04:04:54.439Z,999.53
2022-10-20T04:05:54.363Z,999.56
2022-10-20T04:06:54.312Z,999.60
2022-10-20T04:07:54.241Z,999.60
2022-10-20T04:08:54.255Z,999.62
2022-10-20T04:09:54.118Z,999.64
2022-10-20T04:10:54.055Z,999.66
2022-10-20T04:11:54.004Z,999.64
2022-10-20T04:12:53.928Z,999.62
2022-10-20T04:13:53.858Z,999.59
2022-10-20T04:14:53.799Z,999.62
2022-10-20T04:15:53.725Z,999.64
2022-10-20T04:16:53.679Z,999.66
2022-10-20T04:17:53.590Z,999.65
2022-10-20T04:18:53.555Z,999.66
2022-10-20T04:19:53.479Z,999.64
2022-10-20T04:21:14.376Z,999.63
2022-10-20T04:21:53.346Z,999.64
2022-10-20T04:22:53.280Z,999.62
2022-10-20T04:23:53.222Z,999.61
2022-10-20T04:24:53.146Z,999.60
2022-10-20T04:25:53.088Z,999.60
2022-10-20T04:26:53.039Z,999.55
2022-10-20T04:27:52.967Z,999.60
2022-10-20T04:28:52.883Z,999.58
2022-10-20T04:29:52.831Z,999.60
2022-10-20T04:30:52.756Z,999.61
2022-10-20T04:31:52.708Z,999.59
2022-10-20T04:32:52.651Z,999.63
2022-10-20T04:33:52.574Z,999.60
2022-10-20T04:34:52.500Z,999.50
2022-10-20T04:35:52.438Z,999.53
2022-10-20T04:36:52.387Z,999.46
2022-10-20T04:37:52.308Z,999.45
2022-10-20T04:38:52.267Z,999.44
2022-10-20T04:39:52.186Z,999.41
2022-10-20T04:40:52.110Z,999.38
2022-10-20T04:41:52.070Z,999.39
2022-10-20T04:42:52.031Z,999.38
2022-10-20T04:43:51.920Z,999.32
2022-10-20T04:44:51.950Z,999.31
2022-10-20T04:45:51.786Z,999.35
2022-10-20T04:46:51.723Z,999.31
2022-10-20T04:47:51.670Z,999.29
2022-10-20T04:48:51.614Z,999.27
2022-10-20T04:49:51.536Z,999.26
2022-10-20T04:50:51.491Z,999.17
2022-10-20T04:51:51.438Z,999.19
2022-10-20T04:52:51.377Z,999.16
2022-10-20T04:53:51.294Z,999.17
2022-10-20T04:54:51.206Z,999.15
2022-10-20T04:55:51.144Z,999.18
2022-10-20T04:56:51.097Z,999.17
2022-10-20T04:57:51.039Z,999.15
2022-10-20T04:58:50.955Z,999.17
2022-10-20T04:59:50.888Z,999.13
2022-10-20T05:00:50.824Z,999.07
2022-10-20T05:01:50.889Z,999.04
2022-10-20T05:02:50.704Z,999.02
2022-10-20T05:03:50.637Z,999.04
2022-10-20T05:04:50.583Z,999.06
2022-10-20T05:05:50.518Z,999.06
2022-10-20T05:06:50.439Z,999.06
2022-10-20T05:07:50.377Z,999.05
2022-10-20T05:08:50.377Z,999.04
2022-10-20T05:09:50.241Z,999.02
2022-10-20T05:10:50.179Z,999.00
2022-10-20T05:11:50.132Z,998.99
2022-10-20T05:12:50.068Z,998.96
2022-10-20T05:13:50.009Z,998.95
2022-10-20T05:14:49.946Z,998.95
2022-10-20T05:15:49.882Z,998.94
2022-10-20T05:16:49.803Z,998.94
2022-10-20T05:17:49.744Z,998.92
2022-10-20T05:18:49.629Z,998.91
2022-10-20T05:19:49.632Z,998.88
2022-10-20T05:21:07.867Z,998.86
2022-10-20T05:21:49.490Z,998.89
2022-10-20T05:22:49.392Z,998.87
2022-10-20T05:23:49.284Z,998.85
2022-10-20T05:24:49.234Z,998.81
2022-10-20T05:25:49.221Z,998.81
2022-10-20T05:26:49.427Z,998.83
2022-10-20T05:27:49.065Z,998.80
2022-10-20T05:28:48.975Z,998.80
2022-10-20T05:29:49.139Z,998.77
2022-10-20T05:30:48.851Z,998.78
2022-10-20T05:31:48.827Z,998.71
2022-10-20T05:33:09.721Z,998.70
2022-10-20T05:33:48.645Z,998.71
2022-10-20T05:34:48.597Z,998.72
2022-10-20T05:35:48.518Z,998.75
2022-10-20T05:36:48.471Z,998.67
2022-10-20T05:37:48.407Z,998.66
2022-10-20T05:38:48.386Z,998.68
2022-10-20T05:40:48.382Z,998.64
2022-10-20T05:41:48.144Z,998.60
2022-10-20T05:42:48.081Z,998.62
2022-10-20T05:43:48.042Z,998.59
2022-10-20T05:44:47.956Z,998.62
2022-10-20T05:45:47.864Z,998.65
2022-10-20T05:46:47.803Z,998.63
2022-10-20T05:47:47.751Z,998.66
2022-10-20T05:48:47.686Z,998.65
2022-10-20T05:49:47.630Z,998.67
2022-10-20T05:51:56.732Z,998.63
2022-10-20T05:52:57.661Z,998.63
2022-10-20T05:53:57.599Z,998.63
2022-10-20T05:54:57.524Z,998.63
2022-10-20T05:55:57.458Z,998.64
2022-10-20T05:56:57.408Z,998.62
2022-10-20T05:57:57.328Z,998.67
2022-10-20T05:58:57.267Z,998.62
2022-10-20T05:59:57.198Z,998.62
2022-10-20T06:00:57.137Z,998.61
2022-10-20T06:01:57.062Z,998.60
2022-10-20T06:02:57.036Z,998.59
2022-10-20T06:03:56.940Z,998.62
2022-10-20T06:04:56.877Z,998.61
2022-10-20T06:05:56.824Z,998.60
2022-10-20T06:06:56.764Z,998.56
2022-10-20T06:07:56.695Z,998.51
2022-10-20T06:08:56.713Z,998.48
2022-10-20T06:09:56.563Z,998.45
2022-10-20T06:10:56.484Z,998.37
2022-10-20T06:11:56.494Z,998.34
2022-10-20T06:12:56.412Z,998.28
2022-10-20T06:13:56.308Z,998.32
2022-10-20T06:14:56.238Z,998.30
2022-10-20T06:15:56.173Z,998.30
2022-10-20T06:16:56.123Z,998.36
2022-10-20T06:17:56.036Z,998.34
2022-10-20T06:18:55.985Z,998.33
2022-10-20T06:19:55.920Z,998.28
2022-10-20T06:20:55.874Z,998.32
2022-10-20T06:21:55.796Z,998.25
2022-10-20T06:22:55.719Z,998.26
2022-10-20T06:23:55.670Z,998.19
2022-10-20T06:24:55.576Z,998.18
2022-10-20T06:25:55.528Z,998.14
2022-10-20T06:28:34.348Z,998.16
2022-10-20T06:29:35.250Z,998.21
2022-10-20T06:30:35.188Z,998.20
2022-10-20T06:31:35.118Z,998.18
2022-10-20T06:32:35.409Z,998.15
2022-10-20T06:33:35.006Z,998.18
2022-10-20T06:34:34.927Z,998.20
2022-10-20T06:35:34.872Z,998.15
2022-10-20T06:36:34.802Z,998.19
2022-10-20T06:37:34.754Z,998.15
2022-10-20T06:38:35.605Z,998.18
2022-10-20T06:39:34.611Z,998.17
2022-10-20T06:40:34.533Z,998.20
2022-10-20T06:41:34.488Z,998.18
2022-10-20T06:42:34.753Z,998.25
2022-10-20T06:43:34.340Z,998.24
2022-10-20T06:44:34.332Z,998.21
2022-10-20T06:45:34.224Z,998.15
2022-10-20T06:46:34.145Z,998.16
2022-10-20T06:47:34.323Z,998.17
2022-10-20T06:48:34.044Z,998.10
2022-10-20T06:49:33.954Z,998.08
2022-10-20T06:50:33.930Z,998.09
2022-10-20T06:51:33.843Z,998.05
2022-10-20T06:52:34.091Z,998.02
2022-10-20T06:53:33.697Z,998.04
2022-10-20T06:54:33.660Z,998.02
2022-10-20T06:55:33.588Z,998.03
2022-10-20T06:56:33.528Z,998.02
2022-10-20T06:57:33.439Z,998.02
2022-10-20T06:58:33.384Z,997.96
2022-10-20T06:59:33.460Z,997.95
2022-10-20T07:00:33.289Z,997.94
2022-10-20T07:01:33.212Z,997.94
2022-10-20T07:02:33.296Z,997.96
2022-10-20T07:03:33.074Z,997.95
2022-10-20T07:04:33.025Z,997.98
2022-10-20T07:05:32.935Z,997.98
2022-10-20T07:06:32.858Z,997.97
2022-10-20T07:07:32.936Z,997.96
2022-10-20T07:08:32.823Z,997.89
2022-10-20T07:09:32.664Z,997.87
2022-10-20T07:10:32.620Z,997.83
2022-10-20T07:11:32.575Z,997.89
2022-10-20T07:12:32.576Z,997.94
2022-10-20T07:13:32.634Z,997.92
2022-10-20T07:14:33.982Z,997.94
2022-10-20T07:15:33.439Z,997.91
2022-10-20T07:16:33.923Z,997.89
2022-10-20T07:17:32.954Z,997.97
2022-10-20T07:18:32.121Z,997.97
2022-10-20T07:19:32.012Z,997.96
2022-10-20T07:22:10.846Z,998.01
2022-10-20T07:23:11.750Z,997.98
2022-10-20T07:24:11.674Z,997.97
2022-10-20T07:25:11.615Z,998.04
2022-10-20T07:26:11.573Z,998.01
2022-10-20T07:27:11.488Z,998.00
2022-10-20T07:28:11.419Z,998.01
2022-10-20T07:29:11.356Z,998.04
2022-10-20T07:30:11.301Z,998.05
2022-10-20T07:31:11.238Z,998.04
2022-10-20T07:32:11.192Z,998.03
2022-10-20T07:33:11.127Z,998.03
2022-10-20T07:34:24.970Z,998.05
2022-10-20T07:35:10.992Z,998.04
2022-10-20T07:36:10.907Z,997.98
2022-10-20T07:37:10.878Z,998.01
2022-10-20T07:38:10.833Z,998.02
2022-10-20T07:39:10.728Z,997.98
2022-10-20T07:40:10.661Z,997.98
2022-10-20T07:41:10.596Z,997.97
2022-10-20T07:42:10.524Z,997.97
2022-10-20T07:43:10.457Z,997.93
2022-10-20T07:44:10.421Z,997.91
2022-10-20T07:45:10.333Z,997.95
2022-10-20T07:46:10.271Z,997.95
2022-10-20T07:47:10.199Z,997.97
2022-10-20T07:48:10.151Z,998.00
2022-10-20T07:49:42.997Z,998.00
2022-10-20T07:50:10.036Z,998.07
2022-10-20T07:51:10.058Z,998.04
2022-10-20T07:52:09.898Z,997.97
2022-10-20T07:53:09.813Z,997.96
2022-10-20T07:54:09.789Z,997.99
2022-10-20T07:55:23.927Z,997.97
2022-10-20T07:57:19.874Z,997.97
2022-10-20T07:58:20.762Z,997.94
2022-10-20T07:59:20.678Z,998.02
2022-10-20T08:00:20.608Z,997.93
2022-10-20T08:01:20.615Z,997.96
2022-10-20T08:02:20.572Z,997.93
2022-10-20T08:03:20.440Z,997.93
2022-10-20T08:04:20.362Z,997.87
2022-10-20T08:05:20.282Z,997.88
2022-10-20T08:06:20.215Z,997.88
2022-10-20T08:07:20.158Z,997.91
2022-10-20T08:08:20.111Z,997.93
2022-10-20T08:09:20.019Z,997.94
2022-10-20T08:10:20.064Z,997.97
2022-10-20T08:11:19.909Z,997.99
2022-10-20T08:12:19.848Z,997.97
2022-10-20T08:13:19.776Z,998.01
2022-10-20T08:15:59.633Z,997.99
2022-10-20T08:17:01.079Z,997.95
2022-10-20T08:17:59.533Z,997.96
2022-10-20T08:19:01.573Z,997.96
2022-10-20T08:20:04.097Z,997.92
2022-10-20T08:20:59.316Z,997.92
2022-10-20T08:21:59.234Z,997.90
2022-10-20T08:22:59.183Z,997.95
2022-10-20T08:23:59.123Z,997.93
2022-10-20T08:24:59.060Z,997.96
2022-10-20T08:25:59.001Z,997.96
2022-10-20T08:26:58.927Z,997.94
2022-10-20T08:28:58.780Z,997.92
2022-10-20T08:30:06.322Z,997.91
2022-10-20T08:30:58.674Z,997.82
2022-10-20T08:32:19.573Z,997.82
2022-10-20T08:32:58.539Z,997.87
2022-10-20T08:33:58.467Z,997.84
2022-10-20T08:34:58.442Z,997.84
2022-10-20T08:35:58.333Z,997.83
2022-10-20T08:36:58.278Z,997.78
2022-10-20T08:37:58.233Z,997.77
2022-10-20T08:39:00.857Z,997.80
2022-10-20T08:39:58.080Z,997.81
2022-10-20T08:40:58.017Z,997.80
2022-10-20T08:42:13.403Z,997.80
2022-10-20T08:42:57.909Z,997.81
2022-10-20T08:43:57.860Z,997.76
2022-10-20T08:44:57.755Z,997.72
2022-10-20T08:45:57.698Z,997.74
2022-10-20T08:46:57.631Z,997.71
2022-10-20T08:47:57.568Z,997.67
2022-10-20T08:48:57.511Z,997.69
2022-10-20T08:49:57.471Z,997.68
2022-10-20T08:50:57.371Z,997.71
2022-10-20T08:51:57.323Z,997.71
2022-10-20T08:52:57.731Z,997.68
2022-10-20T08:53:57.203Z,997.66
2022-10-20T08:54:57.136Z,997.63
2022-10-20T08:55:57.095Z,997.62
2022-10-20T08:56:56.985Z,997.59
2022-10-20T08:57:56.924Z,997.66
2022-10-20T08:58:56.872Z,997.68
2022-10-20T08:59:56.812Z,997.65
2022-10-20T09:00:56.741Z,997.57
2022-10-20T09:01:56.762Z,997.55
2022-10-20T09:02:56.620Z,997.47
2022-10-20T09:03:56.539Z,997.50
2022-10-20T09:04:56.494Z,997.53
2022-10-20T09:05:56.427Z,997.44
2022-10-20T09:06:56.376Z,997.45
2022-10-20T09:08:17.280Z,997.48
2022-10-20T09:08:56.260Z,997.46
2022-10-20T09:09:56.178Z,997.41
2022-10-20T09:10:56.106Z,997.46
2022-10-20T09:11:56.038Z,997.40
2022-10-20T09:12:55.957Z,997.41
2022-10-20T09:13:55.922Z,997.45
2022-10-20T09:14:55.841Z,997.39
2022-10-20T09:15:55.784Z,997.37
2022-10-20T09:17:00.200Z,997.33
2022-10-20T09:17:55.651Z,997.34
2022-10-20T09:18:55.583Z,997.34
2022-10-20T09:19:55.542Z,997.40
2022-10-20T09:20:55.450Z,997.42
2022-10-20T09:21:55.379Z,997.41
2022-10-20T09:22:55.454Z,997.39
2022-10-20T09:23:55.496Z,997.38
2022-10-20T09:24:55.181Z,997.37
2022-10-20T09:26:30.393Z,997.28
2022-10-20T09:26:59.655Z,997.26
2022-10-20T09:27:54.991Z,997.19
2022-10-20T09:29:12.052Z,997.19
2022-10-20T09:29:55.316Z,997.16
2022-10-20T09:30:54.801Z,997.21
2022-10-20T09:31:54.872Z,997.14
2022-10-20T09:32:54.668Z,997.19
2022-10-20T09:33:54.620Z,997.20
2022-10-20T09:34:54.555Z,997.21
2022-10-20T09:35:54.490Z,997.21
2022-10-20T09:36:54.414Z,997.15
2022-10-20T09:37:54.629Z,997.12
2022-10-20T09:38:54.301Z,997.15
2022-10-20T09:39:55.678Z,997.11
2022-10-20T09:40:54.172Z,997.10
2022-10-20T09:41:54.155Z,997.07
2022-10-20T09:42:54.048Z,997.07
2022-10-20T09:43:57.116Z,997.06
2022-10-20T09:44:53.924Z,997.03
2022-10-20T09:45:53.836Z,996.96
2022-10-20T09:46:53.772Z,996.93
2022-10-20T09:47:53.716Z,996.91
2022-10-20T09:48:53.645Z,996.88
2022-10-20T09:49:58.463Z,996.87
2022-10-20T09:50:53.524Z,996.82
2022-10-20T09:52:53.385Z,996.79
2022-10-20T09:53:53.345Z,996.76
2022-10-20T09:54:53.264Z,996.76
2022-10-20T09:55:53.208Z,996.76
2022-10-20T09:56:53.123Z,996.77
2022-10-20T09:57:53.071Z,996.81
2022-10-20T09:58:52.995Z,996.83
2022-10-20T09:59:52.927Z,996.80
2022-10-20T10:00:52.940Z,996.78
2022-10-20T10:01:52.822Z,996.74
2022-10-20T10:02:52.745Z,996.73
2022-10-20T10:03:52.745Z,996.75
2022-10-20T10:04:52.615Z,996.69
2022-10-20T10:05:52.539Z,996.67
2022-10-20T10:06:52.494Z,996.62
2022-10-20T10:07:52.422Z,996.64
2022-10-20T10:08:52.437Z,996.65
2022-10-20T10:09:52.307Z,996.62
2022-10-20T10:10:52.225Z,996.62
2022-10-20T10:11:52.189Z,996.60
2022-10-20T10:12:52.099Z,996.58
2022-10-20T10:13:52.052Z,996.55
2022-10-20T10:14:51.963Z,996.57
2022-10-20T10:15:51.902Z,996.56
2022-10-20T10:16:51.837Z,996.57
2022-10-20T10:17:52.158Z,996.54
2022-10-20T10:18:51.740Z,996.56
2022-10-20T10:19:55.404Z,996.60
2022-10-20T10:20:51.582Z,996.61
2022-10-20T10:21:51.518Z,996.55
2022-10-20T10:22:51.451Z,996.55
2022-10-20T10:23:51.394Z,996.55
2022-10-20T10:24:51.334Z,996.52
2022-10-20T10:25:51.276Z,996.51
2022-10-20T10:26:51.199Z,996.47
2022-10-20T10:27:51.147Z,996.46
2022-10-20T10:28:51.068Z,996.44
2022-10-20T10:29:51.011Z,996.44
2022-10-20T10:30:50.939Z,996.41
2022-10-20T10:31:50.882Z,996.48
2022-10-20T10:32:50.832Z,996.43
2022-10-20T10:33:50.758Z,996.36
2022-10-20T10:34:50.697Z,996.29
2022-10-20T10:35:50.639Z,996.28
2022-10-20T10:36:50.553Z,996.29
2022-10-20T10:37:50.528Z,996.26
2022-10-20T10:38:50.439Z,996.28
2022-10-20T10:39:50.378Z,996.28
2022-10-20T10:40:50.298Z,996.23
2022-10-20T10:41:50.318Z,996.25
2022-10-20T10:42:50.164Z,996.22
2022-10-20T10:43:50.432Z,996.15
2022-10-20T10:44:50.061Z,996.07
2022-10-20T10:45:50.001Z,996.10
2022-10-20T10:46:49.919Z,996.05
2022-10-20T10:47:49.878Z,996.04
2022-10-20T10:48:49.848Z,996.07
2022-10-20T10:49:49.750Z,996.05
2022-10-20T10:50:49.684Z,996.03
2022-10-20T10:51:49.605Z,996.06
2022-10-20T10:52:49.526Z,996.05
2022-10-20T10:53:49.474Z,996.00
2022-10-20T10:54:49.439Z,995.99
2022-10-20T10:56:10.382Z,996.01
2022-10-20T10:56:49.272Z,996.06
2022-10-20T10:57:49.217Z,995.99
2022-10-20T10:58:49.156Z,996.00
2022-10-20T10:59:49.142Z,995.99
2022-10-20T11:00:49.068Z,995.99
2022-10-20T11:01:49.425Z,995.96
2022-10-20T11:02:48.883Z,995.99
2022-10-20T11:03:48.830Z,995.97
2022-10-20T11:04:48.760Z,995.99
2022-10-20T11:05:48.709Z,995.98
2022-10-20T11:06:48.655Z,996.04
2022-10-20T11:07:48.594Z,996.04
2022-10-20T11:08:48.545Z,996.01
2022-10-20T11:09:48.452Z,995.99
2022-10-20T11:10:48.373Z,995.94
2022-10-20T11:11:48.322Z,995.96
2022-10-20T11:12:48.242Z,995.95
2022-10-20T11:13:48.203Z,995.92
2022-10-20T11:14:48.154Z,995.90
2022-10-20T11:15:48.054Z,995.93
2022-10-20T11:16:48.008Z,995.85
2022-10-20T11:17:47.926Z,995.80
2022-10-20T11:18:47.866Z,995.79
2022-10-20T11:19:47.842Z,995.75
2022-10-20T11:20:47.755Z,995.75
2022-10-20T11:21:47.682Z,995.73
2022-10-20T11:22:47.605Z,995.69
2022-10-20T11:23:47.551Z,995.74
2022-10-20T11:24:47.518Z,995.69
2022-10-20T11:25:47.453Z,995.66
2022-10-20T11:26:47.394Z,995.61
2022-10-20T11:27:47.307Z,995.62
2022-10-20T11:28:47.239Z,995.59
2022-10-20T11:29:47.161Z,995.63
2022-10-20T11:30:47.110Z,995.67
2022-10-20T11:31:47.110Z,995.68
2022-10-20T11:32:46.983Z,995.66
2022-10-20T11:33:46.912Z,995.58
2022-10-20T11:34:46.843Z,995.56
2022-10-20T11:35:46.818Z,995.59
2022-10-20T11:36:46.731Z,995.55
2022-10-20T11:37:46.731Z,995.52
2022-10-20T11:38:46.714Z,995.47
2022-10-20T11:39:46.568Z,995.42
2022-10-20T11:40:46.481Z,995.43
2022-10-20T11:41:46.435Z,995.42
2022-10-20T11:42:46.432Z,995.42
2022-10-20T11:43:46.287Z,995.47
2022-10-20T11:44:46.216Z,995.44
2022-10-20T11:45:46.153Z,995.34
2022-10-20T11:46:46.077Z,995.31
2022-10-20T11:47:46.041Z,995.26
2022-10-20T11:48:45.965Z,995.35
2022-10-20T11:49:46.163Z,995.36
2022-10-20T11:50:45.828Z,995.29
2022-10-20T11:51:45.781Z,995.28
2022-10-20T11:52:45.716Z,995.23
2022-10-20T11:53:45.647Z,995.25
2022-10-20T11:54:45.584Z,995.26
2022-10-20T11:55:45.585Z,995.27
2022-10-20T11:56:45.438Z,995.20
2022-10-20T11:57:45.380Z,995.26
2022-10-20T11:58:45.329Z,995.33
2022-10-20T11:59:45.265Z,995.33
2022-10-20T12:00:45.225Z,995.29
2022-10-20T12:01:45.183Z,995.28
2022-10-20T12:02:45.077Z,995.27
2022-10-20T12:03:45.017Z,995.28
2022-10-20T12:04:44.951Z,995.25
2022-10-20T12:05:44.909Z,995.27
2022-10-20T12:06:44.833Z,995.24
2022-10-20T12:08:28.387Z,995.25
2022-10-20T12:08:44.778Z,995.23
2022-10-20T12:09:44.629Z,995.20
2022-10-20T12:10:44.568Z,995.25
2022-10-20T12:11:44.500Z,995.29
2022-10-20T12:12:44.424Z,995.27
2022-10-20T12:13:44.377Z,995.28
2022-10-20T12:14:44.317Z,995.28
2022-10-20T12:15:44.246Z,995.33
2022-10-20T12:16:44.191Z,995.30
2022-10-20T12:17:44.120Z,995.34
2022-10-20T12:18:44.057Z,995.40
2022-10-20T12:19:44.285Z,995.41
2022-10-20T12:20:43.945Z,995.51
2022-10-20T12:21:43.873Z,995.54
2022-10-20T12:22:43.794Z,995.55
2022-10-20T12:23:43.741Z,995.52
2022-10-20T12:24:43.683Z,995.52
2022-10-20T12:25:43.815Z,995.46
2022-10-20T12:26:44.767Z,995.46
2022-10-20T12:27:43.489Z,995.43
2022-10-20T12:28:43.433Z,995.46
2022-10-20T12:29:43.364Z,995.39
2022-10-20T12:30:43.298Z,995.41
2022-10-20T12:31:44.743Z,995.41
2022-10-20T12:32:44.203Z,995.39
2022-10-20T12:33:44.339Z,995.36
2022-10-20T12:34:43.817Z,995.30
2022-10-20T12:35:51.737Z,995.27
2022-10-20T12:36:42.900Z,995.29
2022-10-20T12:37:44.970Z,995.31
2022-10-20T12:38:42.774Z,995.24